Terminal Aerodrome Forecast
Issued by NWS Salt Lake City, UT

Current Version | Previous Version | Text Only | Print | Product List | Glossary On
Versions: 1 2 3 4 5 6 7 8 9 10 11 12 13 14 15 16 17 18 19 20 21 22 23 24 25 26 27 28 29
000
FTUS45 KSLC 221142
TAFCDC
TAF
KCDC 221142Z 2212/2312 VRB05KT P6SM SKC
     FM221500 22014G24KT P6SM SCT090 BKN150
     FM230400 29010G16KT P6SM VCSH BKN050=

USA.gov is the U.S. government's official web portal to all federal, state and local government web resources and services.